Saturday, November 18, 2017, 9:37 PM GMT
Back to Local

CWQV, Puinte Claveau

Location: , , Canada Lat: 48.267
Local Time: 9:37 PM GMT (21:37 GMT) Lon: -70.117
Time Zone: GMT Elev: 0 ft

Show me the last for .
Show Coded

Time T Td Feel RH Dir Speed Gust Alt SLP Vis Weather Sky Remarks
2017-11-18 21:00 27 19 17 69 100° 12 - - - 0 None
2017-11-18 20:00 27 17 18 66 80° 8 - - - 0 None
2017-11-18 19:00 25 17 18 70 90° 6 - - - 0 None
2017-11-18 18:00 24 16 - 71 230° 1 - - - 0 None
2017-11-18 17:00 23 15 17 72 250° 5 - - - 0 None
2017-11-18 16:00 23 15 11 72 280° 13 - - - 0 Peak wind: 19 mph (17 kts) from 280° at 05 min
2017-11-18 15:00 22 13 8 70 280° 15 - - - 0 Peak wind: 24 mph (21 kts) from 290° at 06 min
2017-11-18 14:00 20 15 5 79 280° 18 - - - 0 Peak wind: 27 mph (24 kts) from 270° at 00 min
2017-11-18 13:00 19 13 0 77 270° 23 30 - - 0 Peak wind: 32 mph (28 kts) from 270° at 09 min
2017-11-18 12:00 19 15 -2 84 280° 28 35 - - 0 Peak wind: 35 mph (31 kts) from 280° at 00 min
2017-11-18 11:00 19 14 -1 79 280° 30 36 - - 0 Peak wind: 35 mph (31 kts) from 280° at 50 min
2017-11-18 10:00 20 16 1 81 270° 28 33 - - 0 Peak wind: 35 mph (31 kts) from 270° at 28 min
2017-11-18 09:00 21 16 0 80 280° 31 38 - - 0 Peak wind: 39 mph (34 kts) from 270° at 47 min
2017-11-18 08:00 21 16 1 81 280° 32 40 - - 0 Peak wind: 40 mph (35 kts) from 290° at 53 min
2017-11-18 07:00 22 14 2 71 280° 31 39 - - 0 Peak wind: 40 mph (35 kts) from 270° at 29 min
2017-11-18 06:00 22 17 3 80 270° 29 36 - - 0 Peak wind: 40 mph (35 kts) from 280° at 00 min
2017-11-18 05:00 24 19 4 79 280° 33 41 - - 0 Peak wind: 46 mph (40 kts) from 280° at 35 min
2017-11-18 04:00 23 17 2 79 280° 38 47 - - 0 Peak wind: 50 mph (44 kts) from 280° at 37 min
2017-11-18 03:00 23 19 3 83 280° 33 41 - - 0 Peak wind: 42 mph (37 kts) from 280° at 32 min
2017-11-18 02:00 23 19 2 82 280° 40 48 - - 0 Peak wind: 49 mph (43 kts) from 280° at 38 min
2017-11-18 01:00 24 17 3 77 280° 37 45 - - 0 Peak wind: 47 mph (41 kts) from 270° at 37 min
2017-11-18 00:00 24 18 3 77 280° 38 47 - - 0 Peak wind: 47 mph (41 kts) from 280° at 51 min
2017-11-17 23:00 24 19 5 79 270° 35 43 - - 0 Peak wind: 48 mph (42 kts) from 270° at 03 min
2017-11-17 22:00 24 18 5 77 280° 35 43 - - 0 Peak wind: 43 mph (38 kts) from 270° at 37 min

Support USWX by starting your Amazon purchase here.